createdAt,value
2023-05-19T00:02:09.522Z,60.57
2023-05-19T00:04:40.802Z,60.37
2023-05-19T00:07:12.378Z,59.92
2023-05-19T00:09:41.060Z,59.90
2023-05-19T00:12:11.145Z,59.89
2023-05-19T00:14:39.750Z,60.27
2023-05-19T00:17:11.134Z,60.45
2023-05-19T00:19:39.472Z,60.37
2023-05-19T00:22:07.770Z,60.58
2023-05-19T00:24:35.961Z,60.64
2023-05-19T00:27:04.435Z,60.44
2023-05-19T00:29:32.485Z,60.64
2023-05-19T00:32:00.622Z,61.28
2023-05-19T00:34:30.353Z,61.30
2023-05-19T00:36:58.582Z,61.77
2023-05-19T00:39:27.013Z,61.78
2023-05-19T00:41:55.398Z,61.27
2023-05-19T00:44:23.561Z,61.22
2023-05-19T00:46:51.919Z,61.12
2023-05-19T00:49:20.216Z,61.31
2023-05-19T00:51:50.648Z,61.53
2023-05-19T00:54:21.719Z,61.59
2023-05-19T00:56:50.668Z,61.41
2023-05-19T00:59:19.518Z,61.13
2023-05-19T01:01:49.150Z,61.38
2023-05-19T01:04:18.074Z,61.37
2023-05-19T01:06:46.396Z,61.26
2023-05-19T01:09:16.393Z,61.97
2023-05-19T01:11:44.665Z,61.64
2023-05-19T01:14:13.071Z,61.83
2023-05-19T01:16:48.773Z,61.41
2023-05-19T01:19:39.483Z,61.37
2023-05-19T01:22:23.230Z,61.74
2023-05-19T01:25:20.260Z,61.39
2023-05-19T01:28:18.964Z,61.82
2023-05-19T01:30:53.668Z,61.83
2023-05-19T01:33:24.710Z,61.99
2023-05-19T01:35:56.666Z,61.83
2023-05-19T01:38:27.619Z,62.44
2023-05-19T01:40:58.777Z,62.26
2023-05-19T01:43:28.696Z,62.81
2023-05-19T01:45:59.481Z,62.33
2023-05-19T01:48:30.117Z,62.60
2023-05-19T01:50:59.236Z,62.97
2023-05-19T01:53:27.989Z,63.11
2023-05-19T01:55:57.983Z,63.20
2023-05-19T01:58:37.889Z,63.04
2023-05-19T02:01:22.973Z,62.43
2023-05-19T02:04:14.448Z,62.51
2023-05-19T02:06:51.077Z,62.72
2023-05-19T02:09:27.337Z,62.55
2023-05-19T02:12:02.693Z,62.38
2023-05-19T02:14:35.033Z,62.37
2023-05-19T02:17:06.205Z,62.45
2023-05-19T02:19:40.738Z,62.53
2023-05-19T02:22:09.672Z,62.49
2023-05-19T02:24:38.088Z,62.51
2023-05-19T02:27:07.512Z,62.25
2023-05-19T02:29:35.735Z,62.53
2023-05-19T02:32:07.341Z,62.86
2023-05-19T02:34:35.804Z,62.72
2023-05-19T02:37:07.712Z,62.51
2023-05-19T02:39:35.946Z,62.65
2023-05-19T02:42:04.218Z,62.30
2023-05-19T02:44:32.532Z,62.54
2023-05-19T02:47:01.164Z,62.77
2023-05-19T02:49:35.838Z,62.70
2023-05-19T02:52:04.374Z,62.82
2023-05-19T02:54:32.630Z,62.79
2023-05-19T02:57:01.155Z,62.65
2023-05-19T02:59:29.536Z,62.77
2023-05-19T03:02:00.568Z,62.64
2023-05-19T03:04:30.381Z,62.30
2023-05-19T03:06:59.018Z,63.00
2023-05-19T03:09:27.256Z,62.93
2023-05-19T03:11:55.839Z,62.55
2023-05-19T03:14:25.235Z,62.92
2023-05-19T03:16:53.707Z,63.06
2023-05-19T03:19:22.206Z,63.15
2023-05-19T03:21:52.616Z,62.91
2023-05-19T03:24:20.978Z,63.21
2023-05-19T03:26:49.399Z,63.26
2023-05-19T03:29:17.616Z,63.70
2023-05-19T03:31:46.774Z,63.70
2023-05-19T03:34:16.960Z,63.78
2023-05-19T03:36:45.356Z,63.67
2023-05-19T03:39:18.445Z,64.07
2023-05-19T03:41:49.842Z,64.30
2023-05-19T03:44:18.111Z,64.08
2023-05-19T03:46:46.444Z,63.54
2023-05-19T03:49:20.741Z,63.63
2023-05-19T03:52:07.801Z,63.68
2023-05-19T03:54:49.757Z,64.09
2023-05-19T03:57:18.019Z,64.35
2023-05-19T03:59:46.762Z,64.37
2023-05-19T04:02:16.469Z,64.41
2023-05-19T04:04:45.061Z,64.14
2023-05-19T04:07:13.353Z,64.19
2023-05-19T04:09:43.779Z,64.59
2023-05-19T04:12:13.621Z,64.71
2023-05-19T04:14:41.921Z,64.70
2023-05-19T04:17:12.049Z,64.53
2023-05-19T04:19:40.410Z,64.14
2023-05-19T04:22:08.614Z,64.36
2023-05-19T04:24:36.950Z,64.23
2023-05-19T04:27:05.552Z,64.39
2023-05-19T04:29:35.699Z,64.06
2023-05-19T04:32:07.045Z,64.96
2023-05-19T04:34:36.133Z,64.79
2023-05-19T04:37:07.139Z,64.58
2023-05-19T04:39:38.804Z,64.70
2023-05-19T04:42:09.077Z,64.14
2023-05-19T04:44:40.323Z,64.34
2023-05-19T04:47:09.195Z,64.18
2023-05-19T04:49:39.717Z,63.05
2023-05-19T04:52:10.888Z,63.85
2023-05-19T04:54:41.779Z,63.84
2023-05-19T04:57:13.509Z,63.50
2023-05-19T04:59:44.011Z,63.28
2023-05-19T05:02:12.482Z,63.46
2023-05-19T05:04:44.019Z,63.19
2023-05-19T05:07:12.331Z,62.88
2023-05-19T05:09:41.416Z,62.92
2023-05-19T05:12:11.156Z,62.84
2023-05-19T05:14:41.716Z,62.70
2023-05-19T05:17:14.616Z,62.45
2023-05-19T05:19:45.439Z,62.05
2023-05-19T05:22:14.706Z,61.43
2023-05-19T05:24:44.511Z,61.17
2023-05-19T05:27:13.601Z,61.23
2023-05-19T05:29:42.022Z,61.03
2023-05-19T05:32:12.723Z,60.65
2023-05-19T05:34:41.991Z,61.14
2023-05-19T05:37:10.258Z,61.26
2023-05-19T05:39:38.869Z,60.87
2023-05-19T05:42:09.139Z,60.11
2023-05-19T05:44:37.438Z,60.63
2023-05-19T05:47:07.815Z,60.16
2023-05-19T05:49:39.224Z,60.20
2023-05-19T05:52:09.317Z,60.37
2023-05-19T05:54:44.590Z,60.03
2023-05-19T05:57:14.549Z,60.18
2023-05-19T05:59:45.756Z,59.08
2023-05-19T06:02:14.290Z,58.80
2023-05-19T06:04:44.001Z,58.60
2023-05-19T06:07:12.179Z,58.64
2023-05-19T06:09:41.057Z,57.95
2023-05-19T06:12:11.389Z,58.05
2023-05-19T06:14:44.387Z,58.30
2023-05-19T06:17:21.444Z,57.55
2023-05-19T06:19:52.151Z,57.27
2023-05-19T06:22:20.375Z,56.58
2023-05-19T06:24:49.586Z,55.59
2023-05-19T06:27:17.855Z,55.74
2023-05-19T06:29:47.584Z,55.06
2023-05-19T06:32:15.918Z,55.31
2023-05-19T06:34:44.478Z,54.27
2023-05-19T06:37:17.253Z,54.65
2023-05-19T06:39:45.814Z,53.79
2023-05-19T06:42:14.028Z,53.81
2023-05-19T06:45:00.214Z,54.48
2023-05-19T06:47:29.174Z,53.00
2023-05-19T06:49:57.976Z,53.18
2023-05-19T06:52:30.949Z,52.80
2023-05-19T06:54:59.451Z,53.47
2023-05-19T06:57:27.742Z,52.78
2023-05-19T06:59:56.788Z,53.12
2023-05-19T07:02:25.608Z,52.70
2023-05-19T07:04:54.732Z,51.60
2023-05-19T07:07:24.015Z,49.75
2023-05-19T07:09:54.659Z,51.12
2023-05-19T07:12:23.056Z,50.88
2023-05-19T07:14:51.653Z,50.71
2023-05-19T07:17:20.724Z,49.65
2023-05-19T07:19:49.678Z,48.97
2023-05-19T07:22:18.130Z,47.48
2023-05-19T07:24:46.511Z,48.19
2023-05-19T07:27:16.730Z,46.73
2023-05-19T07:29:44.927Z,46.21
2023-05-19T07:32:13.896Z,47.99
2023-05-19T07:34:42.100Z,45.78
2023-05-19T07:37:10.373Z,46.97
2023-05-19T07:39:38.640Z,45.44
2023-05-19T07:42:07.092Z,44.68
2023-05-19T07:44:36.882Z,45.58
2023-05-19T07:47:05.294Z,46.41
2023-05-19T07:49:33.520Z,47.04
2023-05-19T07:52:01.985Z,47.65
2023-05-19T07:54:30.346Z,47.26
2023-05-19T07:56:58.625Z,47.06
2023-05-19T07:59:26.904Z,46.87
2023-05-19T08:01:56.756Z,47.03
2023-05-19T08:04:25.008Z,44.81
2023-05-19T08:06:53.301Z,45.55
2023-05-19T08:09:21.704Z,45.85
2023-05-19T08:11:50.194Z,47.11
2023-05-19T08:14:18.503Z,46.91
2023-05-19T08:16:47.034Z,46.60
2023-05-19T08:19:17.088Z,47.13
2023-05-19T08:21:45.551Z,48.74
2023-05-19T08:24:14.091Z,48.30
2023-05-19T08:26:42.154Z,48.64
2023-05-19T08:29:10.402Z,48.45
2023-05-19T08:31:39.033Z,49.03
2023-05-19T08:34:07.264Z,49.20
2023-05-19T08:36:37.418Z,49.06
2023-05-19T08:39:06.641Z,48.47
2023-05-19T08:41:34.730Z,49.15
2023-05-19T08:44:03.088Z,49.28
2023-05-19T08:46:31.599Z,48.33
2023-05-19T08:49:11.396Z,48.88
2023-05-19T08:51:51.880Z,49.60
2023-05-19T08:54:20.945Z,48.53
2023-05-19T08:56:49.921Z,47.91
2023-05-19T08:59:19.696Z,47.27
2023-05-19T09:01:50.120Z,47.13
2023-05-19T09:04:19.225Z,47.51
2023-05-19T09:06:50.330Z,47.58
2023-05-19T09:09:18.644Z,48.29
2023-05-19T09:11:47.771Z,48.28
2023-05-19T09:14:16.048Z,49.22
2023-05-19T09:16:49.820Z,49.08
2023-05-19T09:19:18.605Z,49.67
2023-05-19T09:21:48.490Z,49.50
2023-05-19T09:24:17.162Z,48.67
2023-05-19T09:26:46.845Z,49.55
2023-05-19T09:29:16.653Z,50.16
2023-05-19T09:31:51.975Z,49.76
2023-05-19T09:34:21.160Z,50.24
2023-05-19T09:36:51.824Z,49.83
2023-05-19T09:39:21.835Z,49.74
2023-05-19T09:41:52.840Z,50.46
2023-05-19T09:44:28.875Z,49.84
2023-05-19T09:46:58.541Z,50.88
2023-05-19T09:49:29.567Z,50.67
2023-05-19T09:52:00.739Z,50.12
2023-05-19T09:54:29.955Z,50.20
2023-05-19T09:57:00.459Z,49.91
2023-05-19T09:59:32.864Z,50.55
2023-05-19T10:02:03.156Z,50.99
2023-05-19T10:04:32.759Z,51.40
2023-05-19T10:07:06.598Z,51.57
2023-05-19T10:09:37.420Z,51.65
2023-05-19T10:12:08.195Z,51.74
2023-05-19T10:14:38.040Z,51.21
2023-05-19T10:17:09.326Z,50.74
2023-05-19T10:19:39.905Z,49.94
2023-05-19T10:22:10.050Z,49.65
2023-05-19T10:24:38.615Z,49.79
2023-05-19T10:27:12.630Z,50.70
2023-05-19T10:29:47.337Z,50.52
2023-05-19T10:32:21.039Z,50.25
2023-05-19T10:35:13.321Z,50.41
2023-05-19T10:37:51.783Z,50.58
2023-05-19T10:40:27.764Z,51.42
2023-05-19T10:43:14.237Z,51.65
2023-05-19T10:45:50.110Z,52.53
2023-05-19T10:48:21.751Z,52.30
2023-05-19T10:50:54.201Z,50.96
2023-05-19T10:53:24.123Z,51.13
2023-05-19T10:55:56.290Z,50.39
2023-05-19T10:58:39.795Z,50.79
2023-05-19T11:01:14.823Z,51.85
2023-05-19T11:03:48.299Z,51.54
2023-05-19T11:06:32.009Z,49.80
2023-05-19T11:09:05.928Z,50.47
2023-05-19T11:11:47.369Z,49.94
2023-05-19T11:14:18.958Z,48.50
2023-05-19T11:16:52.558Z,48.16
2023-05-19T11:19:28.746Z,47.84
2023-05-19T11:21:59.215Z,49.04
2023-05-19T11:24:40.174Z,50.37
2023-05-19T11:27:22.196Z,50.07
2023-05-19T11:29:51.292Z,49.28
2023-05-19T11:32:21.984Z,48.37
2023-05-19T11:34:54.105Z,47.81
2023-05-19T11:37:25.399Z,47.38
2023-05-19T11:39:55.847Z,46.85
2023-05-19T11:42:25.896Z,47.96
2023-05-19T11:44:57.925Z,48.50
2023-05-19T11:47:26.615Z,49.14
2023-05-19T11:49:56.655Z,49.55
2023-05-19T11:52:27.708Z,49.87
2023-05-19T11:55:01.731Z,50.69
2023-05-19T11:57:31.103Z,51.53
2023-05-19T12:00:04.588Z,51.25
2023-05-19T12:02:34.305Z,51.20
2023-05-19T12:05:02.677Z,51.24
2023-05-19T12:07:31.258Z,50.42
2023-05-19T12:10:01.360Z,50.97
2023-05-19T12:12:32.366Z,51.15
2023-05-19T12:15:05.990Z,50.82
2023-05-19T12:17:34.774Z,49.76
2023-05-19T12:20:05.123Z,49.46
2023-05-19T12:22:33.516Z,49.93
2023-05-19T12:25:05.474Z,49.56
2023-05-19T12:27:38.427Z,50.54
2023-05-19T12:30:08.470Z,50.19
2023-05-19T12:32:37.488Z,50.69
2023-05-19T12:35:07.767Z,51.10
2023-05-19T12:37:37.960Z,50.94
2023-05-19T12:40:10.259Z,50.75
2023-05-19T12:42:38.954Z,50.02
2023-05-19T12:45:08.542Z,50.81
2023-05-19T12:47:38.233Z,50.91
2023-05-19T12:50:09.345Z,49.76
2023-05-19T12:52:44.177Z,49.66
2023-05-19T12:55:14.676Z,49.78
2023-05-19T12:57:47.967Z,48.80
2023-05-19T13:00:20.846Z,49.37
2023-05-19T13:03:01.978Z,49.60
2023-05-19T13:05:33.708Z,49.40
2023-05-19T13:08:04.052Z,49.69
2023-05-19T13:10:35.459Z,49.76
2023-05-19T13:13:22.412Z,50.25
2023-05-19T13:16:10.666Z,50.04
2023-05-19T13:18:57.266Z,50.85
2023-05-19T13:21:25.860Z,50.13
2023-05-19T13:23:54.078Z,49.96
2023-05-19T13:26:23.876Z,49.37
2023-05-19T13:28:52.115Z,49.96
2023-05-19T13:31:20.459Z,49.55
2023-05-19T13:33:49.682Z,48.48
2023-05-19T13:36:17.944Z,49.54
2023-05-19T13:38:46.209Z,49.52
2023-05-19T13:41:16.022Z,49.24
2023-05-19T13:43:45.855Z,48.44
2023-05-19T13:46:14.193Z,49.27
2023-05-19T13:48:42.746Z,49.61
2023-05-19T13:51:12.272Z,48.97
2023-05-19T13:53:41.341Z,48.78
2023-05-19T13:56:10.039Z,49.24
2023-05-19T13:58:38.560Z,48.71
2023-05-19T14:01:07.984Z,48.85
2023-05-19T14:03:37.195Z,48.41
2023-05-19T14:06:06.040Z,48.40
2023-05-19T14:08:34.731Z,49.30
2023-05-19T14:11:03.190Z,49.28
2023-05-19T14:13:34.448Z,48.89
2023-05-19T14:16:05.185Z,47.88
2023-05-19T14:18:34.757Z,48.56
2023-05-19T14:21:03.934Z,48.58
2023-05-19T14:23:33.344Z,47.88
2023-05-19T14:26:02.528Z,47.97
2023-05-19T14:28:31.043Z,48.01
2023-05-19T14:30:59.696Z,47.79
2023-05-19T14:33:28.278Z,47.77
2023-05-19T14:36:00.180Z,48.17
2023-05-19T14:38:29.448Z,48.54
2023-05-19T14:40:58.765Z,49.43
2023-05-19T14:43:27.626Z,49.29
2023-05-19T14:45:56.573Z,49.55
2023-05-19T14:48:24.908Z,49.61
2023-05-19T14:50:54.802Z,49.12
2023-05-19T14:53:24.510Z,50.02
2023-05-19T14:55:53.047Z,50.41
2023-05-19T14:58:28.976Z,50.63
2023-05-19T15:00:59.508Z,51.11
2023-05-19T15:03:28.171Z,51.39
2023-05-19T15:05:56.486Z,50.93
2023-05-19T15:08:26.303Z,50.89
2023-05-19T15:10:54.742Z,50.73
2023-05-19T15:13:23.087Z,51.00
2023-05-19T15:16:08.273Z,50.67
2023-05-19T15:18:43.553Z,51.23
2023-05-19T15:21:13.114Z,51.23
2023-05-19T15:23:42.947Z,52.11
2023-05-19T15:26:11.288Z,52.50
2023-05-19T15:28:39.324Z,51.73
2023-05-19T15:31:07.838Z,52.09
2023-05-19T15:33:36.864Z,52.62
2023-05-19T15:36:05.642Z,52.38
2023-05-19T15:38:37.190Z,52.41
2023-05-19T15:41:09.813Z,52.79
2023-05-19T15:43:38.754Z,52.23
2023-05-19T15:46:07.181Z,52.04
2023-05-19T15:48:35.872Z,51.73
2023-05-19T15:51:04.498Z,52.03
2023-05-19T15:53:33.440Z,51.14
2023-05-19T15:56:03.319Z,51.38
2023-05-19T15:58:34.319Z,50.63
2023-05-19T16:01:02.948Z,50.86
2023-05-19T16:03:31.493Z,51.65
2023-05-19T16:06:00.757Z,51.56
2023-05-19T16:08:29.138Z,51.65
2023-05-19T16:10:57.489Z,51.93
2023-05-19T16:13:25.777Z,51.72
2023-05-19T16:15:56.088Z,51.82
2023-05-19T16:18:26.195Z,51.67
2023-05-19T16:20:54.512Z,51.41
2023-05-19T16:23:22.541Z,51.36
2023-05-19T16:25:50.765Z,51.02
2023-05-19T16:28:19.518Z,51.50
2023-05-19T16:30:47.964Z,51.25
2023-05-19T16:33:17.557Z,51.10
2023-05-19T16:35:45.967Z,50.83
2023-05-19T16:38:14.358Z,50.86
2023-05-19T16:40:42.881Z,50.74
2023-05-19T16:43:36.033Z,51.43
2023-05-19T16:46:05.428Z,51.34
2023-05-19T16:48:35.354Z,50.92
2023-05-19T16:51:06.978Z,50.77
2023-05-19T16:53:35.741Z,50.84
2023-05-19T16:56:04.108Z,50.75
2023-05-19T16:58:32.329Z,51.34
2023-05-19T17:01:00.672Z,50.86
2023-05-19T17:03:31.115Z,50.94
2023-05-19T17:06:01.575Z,50.53
2023-05-19T17:08:29.829Z,50.80
2023-05-19T17:10:58.153Z,50.84
2023-05-19T17:13:28.598Z,51.38
2023-05-19T17:15:56.741Z,51.28
2023-05-19T17:18:25.001Z,51.40
2023-05-19T17:20:54.519Z,51.75
2023-05-19T17:23:24.502Z,52.48
2023-05-19T17:25:55.974Z,52.50
2023-05-19T17:28:25.986Z,52.04
2023-05-19T17:30:54.355Z,51.97
2023-05-19T17:33:23.065Z,52.21
2023-05-19T17:35:51.645Z,51.36
2023-05-19T17:38:22.784Z,51.45
2023-05-19T17:40:58.644Z,52.08
2023-05-19T17:43:27.063Z,51.86
2023-05-19T17:45:55.768Z,52.01
2023-05-19T17:48:24.019Z,52.18
2023-05-19T17:50:52.283Z,52.35
2023-05-19T17:53:21.412Z,52.62
2023-05-19T17:55:54.218Z,52.65
2023-05-19T17:58:23.359Z,53.19
2023-05-19T18:00:52.603Z,53.03
2023-05-19T18:03:21.691Z,53.13
2023-05-19T18:05:51.157Z,53.09
2023-05-19T18:08:20.067Z,53.56
2023-05-19T18:10:49.405Z,53.54
2023-05-19T18:13:19.327Z,53.82
2023-05-19T18:15:47.532Z,54.33
2023-05-19T18:18:17.167Z,54.53
2023-05-19T18:20:45.697Z,54.63
2023-05-19T18:23:14.080Z,54.86
2023-05-19T18:25:42.650Z,55.15
2023-05-19T18:28:11.553Z,55.14
2023-05-19T18:30:41.479Z,55.38
2023-05-19T18:33:09.981Z,55.39
2023-05-19T18:35:38.524Z,55.93
2023-05-19T18:38:06.827Z,56.07
2023-05-19T18:40:37.474Z,56.37
2023-05-19T18:43:05.737Z,56.35
2023-05-19T18:45:37.662Z,56.78
2023-05-19T18:48:08.787Z,56.91
2023-05-19T18:50:37.660Z,56.95
2023-05-19T18:53:06.237Z,56.85
2023-05-19T18:55:36.450Z,56.77
2023-05-19T18:58:06.270Z,56.65
2023-05-19T19:00:37.396Z,56.70
2023-05-19T19:03:07.683Z,57.01
2023-05-19T19:05:36.349Z,56.70
2023-05-19T19:08:05.689Z,56.65
2023-05-19T19:10:39.271Z,56.99
2023-05-19T19:13:08.501Z,57.11
2023-05-19T19:15:39.713Z,57.24
2023-05-19T19:18:09.521Z,57.46
2023-05-19T19:20:37.848Z,57.14
2023-05-19T19:23:06.778Z,57.09
2023-05-19T19:25:35.318Z,56.91
2023-05-19T19:28:03.812Z,56.79
2023-05-19T19:30:33.695Z,57.36
2023-05-19T19:33:03.100Z,57.40
2023-05-19T19:35:35.200Z,57.24
2023-05-19T19:38:06.463Z,57.29
2023-05-19T19:40:35.104Z,57.48
2023-05-19T19:43:04.069Z,57.48
2023-05-19T19:45:34.852Z,57.66
2023-05-19T19:48:09.149Z,58.13
2023-05-19T19:50:41.425Z,58.06
2023-05-19T19:53:11.034Z,58.78
2023-05-19T19:55:39.912Z,59.00
2023-05-19T19:58:09.143Z,59.19
2023-05-19T20:00:37.701Z,59.30
2023-05-19T20:03:06.364Z,59.27
2023-05-19T20:05:35.220Z,59.54
2023-05-19T20:08:08.074Z,59.07
2023-05-19T20:10:37.801Z,60.03
2023-05-19T20:13:06.082Z,59.82
2023-05-19T20:15:35.504Z,60.15
2023-05-19T20:18:04.443Z,60.12
2023-05-19T20:20:33.477Z,60.31
2023-05-19T20:23:02.260Z,60.44
2023-05-19T20:25:32.975Z,60.44
2023-05-19T20:28:02.228Z,60.65
2023-05-19T20:30:30.910Z,60.44
2023-05-19T20:32:59.617Z,60.42
2023-05-19T20:35:28.165Z,60.46
2023-05-19T20:37:56.156Z,60.48
2023-05-19T20:40:24.852Z,60.45
2023-05-19T20:42:55.110Z,60.78
2023-05-19T20:45:23.601Z,60.92
2023-05-19T20:47:54.408Z,60.92
2023-05-19T20:50:22.592Z,61.21
2023-05-19T20:52:51.109Z,61.15
2023-05-19T20:55:19.457Z,60.46
2023-05-19T20:57:47.636Z,61.19
2023-05-19T21:00:18.224Z,60.99
2023-05-19T21:02:46.205Z,61.11
2023-05-19T21:05:14.541Z,61.30
2023-05-19T21:07:42.822Z,61.32
2023-05-19T21:10:13.753Z,61.30
2023-05-19T21:12:41.725Z,61.58
2023-05-19T21:15:10.878Z,61.74
2023-05-19T21:17:40.522Z,61.78
2023-05-19T21:20:10.150Z,61.62
2023-05-19T21:22:38.445Z,61.88
2023-05-19T21:25:07.781Z,61.54
2023-05-19T21:27:36.365Z,62.30
2023-05-19T21:30:04.833Z,61.65
2023-05-19T21:32:33.290Z,61.36
2023-05-19T21:35:03.447Z,61.34
2023-05-19T21:37:31.737Z,61.64
2023-05-19T21:40:00.160Z,61.75
2023-05-19T21:42:28.728Z,61.97
2023-05-19T21:44:57.075Z,61.66
2023-05-19T21:47:25.345Z,61.93
2023-05-19T21:49:53.645Z,61.67
2023-05-19T21:52:23.363Z,61.89
2023-05-19T21:54:52.004Z,61.81
2023-05-19T21:57:20.005Z,61.74
2023-05-19T21:59:48.432Z,61.87
2023-05-19T22:02:17.024Z,62.03
2023-05-19T22:04:45.167Z,61.90
2023-05-19T22:07:13.681Z,62.15
2023-05-19T22:09:43.804Z,62.16
2023-05-19T22:12:11.996Z,61.97
2023-05-19T22:14:40.553Z,61.85
2023-05-19T22:17:09.274Z,61.72
2023-05-19T22:19:37.574Z,61.43
2023-05-19T22:22:13.001Z,61.07
2023-05-19T22:24:44.333Z,61.28
2023-05-19T22:27:12.817Z,61.82
2023-05-19T22:29:41.526Z,62.24
2023-05-19T22:32:12.152Z,61.80
2023-05-19T22:34:40.546Z,61.77
2023-05-19T22:37:08.800Z,61.49
2023-05-19T22:39:37.009Z,61.75
2023-05-19T22:42:07.439Z,62.12
2023-05-19T22:44:35.914Z,61.93
2023-05-19T22:47:04.453Z,61.64
2023-05-19T22:49:33.449Z,62.00
2023-05-19T22:52:01.942Z,61.83
2023-05-19T22:54:30.228Z,61.78
2023-05-19T22:56:58.437Z,61.86
2023-05-19T22:59:27.730Z,61.56
2023-05-19T23:01:56.041Z,61.79
2023-05-19T23:04:24.499Z,61.66
2023-05-19T23:06:52.944Z,61.79
2023-05-19T23:09:21.901Z,62.54
2023-05-19T23:11:50.152Z,62.48
2023-05-19T23:14:18.703Z,62.71
2023-05-19T23:16:48.685Z,63.08
2023-05-19T23:19:17.118Z,63.34
2023-05-19T23:21:45.909Z,63.28
2023-05-19T23:24:14.157Z,63.09
2023-05-19T23:26:44.136Z,62.87
2023-05-19T23:29:13.886Z,63.15
2023-05-19T23:31:42.210Z,63.84
2023-05-19T23:34:11.957Z,63.45
2023-05-19T23:36:41.093Z,63.92
2023-05-19T23:39:09.411Z,63.73
2023-05-19T23:41:37.657Z,64.13
2023-05-19T23:44:06.128Z,64.21
2023-05-19T23:46:34.675Z,64.25
2023-05-19T23:49:03.081Z,64.13
2023-05-19T23:51:32.779Z,64.04
2023-05-19T23:54:01.097Z,64.18
2023-05-19T23:56:29.304Z,64.37
2023-05-19T23:58:57.397Z,64.59
